Time;durP1;ratioP1;P1;durP2;ratioP2;P2;SDS_P1;SDS_P2;PMS_P1;PMS_P2;Temp;Humidity;BMP_temperature;BMP_pressure;BME280_temperature;BME280_humidity;BME280_pressure;Samples;Min_cycle;Max_cycle;Signal;HPM_P1;HPM_P2
2022/09/19 00:01:27;;;;;;;9.25;5.40;;;12.70;81.90;;;;;;5076653;28;20031;-17
2022/09/19 00:03:55;;;;;;;8.43;6.32;;;12.80;80.70;;;;;;5094886;28;20430;-16
2022/09/19 00:06:23;;;;;;;9.48;6.35;;;12.80;80.30;;;;;;5094116;28;20071;-17
2022/09/19 00:08:50;;;;;;;11.00;6.47;;;12.80;80.60;;;;;;5094413;28;20040;-17
2022/09/19 00:11:18;;;;;;;6.50;4.70;;;12.80;79.90;;;;;;5094549;28;20054;-17
2022/09/19 00:13:45;;;;;;;8.38;5.43;;;12.70;79.50;;;;;;5094401;28;20108;-17
2022/09/19 00:16:12;;;;;;;12.60;7.88;;;12.70;79.50;;;;;;5094712;28;20023;-16
2022/09/19 00:18:39;;;;;;;6.85;5.13;;;12.70;79.30;;;;;;5076368;28;20040;-16
2022/09/19 00:21:05;;;;;;;8.23;5.82;;;12.70;79.10;;;;;;5094313;28;20073;-17
2022/09/19 00:26:17;;;;;;;7.82;5.32;;;12.70;79.40;;;;;;5094768;28;20035;-16
2022/09/19 00:28:45;;;;;;;7.28;5.30;;;12.60;79.20;;;;;;5094147;28;20032;-16
2022/09/19 00:31:17;;;;;;;7.00;5.00;;;12.60;79.10;;;;;;5093998;28;20024;-16
2022/09/19 00:33:44;;;;;;;9.90;7.55;;;12.60;79.00;;;;;;5094079;28;20028;-17
2022/09/19 00:36:10;;;;;;;6.35;4.72;;;12.60;79.40;;;;;;5094374;28;20035;-17
2022/09/19 00:38:37;;;;;;;6.75;4.90;;;12.50;79.10;;;;;;5076035;28;20020;-16
2022/09/19 00:41:05;;;;;;;8.40;5.10;;;12.40;79.10;;;;;;5093948;28;20609;-17
2022/09/19 00:43:53;;;;;;;8.80;5.97;;;12.40;79.10;;;;;;5093765;28;20106;-17
2022/09/19 00:46:22;;;;;;;10.10;7.22;;;12.40;79.00;;;;;;5094054;28;20020;-16
2022/09/19 00:48:53;;;;;;;10.77;7.50;;;12.40;79.10;;;;;;5094057;28;20097;-16
2022/09/19 00:51:29;;;;;;;11.80;7.93;;;12.30;79.10;;;;;;5094166;28;20047;-15
2022/09/19 00:53:55;;;;;;;10.52;7.07;;;12.30;79.20;;;;;;5094134;28;20027;-16
2022/09/19 00:56:23;;;;;;;8.77;6.13;;;12.20;79.50;;;;;;5094040;28;20093;-16
2022/09/19 00:58:50;;;;;;;7.63;5.57;;;12.20;79.50;;;;;;5093706;28;20137;-17
2022/09/19 01:01:16;;;;;;;12.50;8.30;;;12.20;79.50;;;;;;5093572;28;20036;-17
2022/09/19 01:03:46;;;;;;;11.13;7.68;;;12.20;79.70;;;;;;5093515;28;20483;-16
2022/09/19 01:06:42;;;;;;;9.82;6.25;;;12.10;79.70;;;;;;5093520;28;20533;-16
2022/09/19 01:09:36;;;;;;;10.98;7.50;;;12.00;79.70;;;;;;5093647;28;20145;-17
2022/09/19 01:12:46;;;;;;;12.63;8.82;;;12.00;79.60;;;;;;5093730;28;20031;-16
2022/09/19 01:15:28;;;;;;;9.77;6.68;;;12.00;79.70;;;;;;5093996;28;20069;-17
2022/09/19 01:17:59;;;;;;;12.55;9.02;;;12.00;80.00;;;;;;5092629;28;20032;-17
2022/09/19 01:20:55;;;;;;;8.77;6.82;;;11.90;79.90;;;;;;5093416;28;20020;-16
2022/09/19 01:23:32;;;;;;;12.70;8.93;;;11.90;79.90;;;;;;5093287;28;20137;-18
2022/09/19 01:26:35;;;;;;;11.32;7.63;;;11.80;80.00;;;;;;5093366;28;20028;-18
2022/09/19 01:29:15;;;;;;;9.63;5.45;;;11.80;80.20;;;;;;5091850;28;20028;-16
2022/09/19 01:31:45;;;;;;;7.75;5.38;;;11.70;80.20;;;;;;5093623;28;20031;-17
2022/09/19 01:34:14;;;;;;;6.97;5.18;;;11.70;80.20;;;;;;5093225;28;20020;-16
2022/09/19 01:36:43;;;;;;;8.93;6.38;;;11.70;80.30;;;;;;5093099;28;20130;-16
2022/09/19 01:39:11;;;;;;;11.45;8.68;;;11.60;80.30;;;;;;5093233;28;20040;-16
2022/09/19 01:41:37;;;;;;;8.45;5.28;;;11.60;80.40;;;;;;5093326;28;20020;-16
2022/09/19 01:44:08;;;;;;;8.38;5.10;;;11.60;80.70;;;;;;5075232;28;20360;-15
2022/09/19 01:46:37;;;;;;;13.23;8.57;;;11.60;80.50;;;;;;5093457;28;20035;-17
2022/09/19 01:49:19;;;;;;;8.32;5.80;;;11.60;80.50;;;;;;5091700;28;20024;-18
2022/09/19 01:51:50;;;;;;;6.78;5.05;;;11.50;80.50;;;;;;5093542;28;20025;-16
2022/09/19 01:54:26;;;;;;;13.70;8.63;;;11.50;80.60;;;;;;5093312;28;20391;-16
2022/09/19 01:57:21;;;;;;;8.35;5.75;;;11.50;80.40;;;;;;5093037;28;20069;-18
2022/09/19 02:00:04;;;;;;;7.72;5.10;;;11.50;80.60;;;;;;5093542;28;20024;-17
2022/09/19 02:03:03;;;;;;;12.73;8.85;;;11.50;80.40;;;;;;5093176;28;20509;-16
2022/09/19 02:05:36;;;;;;;14.20;9.52;;;11.50;80.40;;;;;;5093313;28;20158;-16
2022/09/19 02:08:28;;;;;;;9.93;7.55;;;11.50;80.50;;;;;;5074692;28;20059;-16
2022/09/19 02:11:11;;;;;;;11.75;8.98;;;11.50;80.60;;;;;;5093010;28;20059;-16
2022/09/19 02:13:44;;;;;;;9.20;6.55;;;11.40;80.80;;;;;;5092826;28;20039;-16
2022/09/19 02:16:16;;;;;;;10.30;8.02;;;11.40;80.80;;;;;;5093083;28;20028;-18
2022/09/19 02:19:06;;;;;;;10.73;7.70;;;11.30;80.80;;;;;;5092843;28;20031;-16
2022/09/19 02:21:53;;;;;;;13.45;8.55;;;11.30;80.90;;;;;;5092264;28;20028;-16
2022/09/19 02:24:30;;;;;;;12.02;8.25;;;11.30;81.10;;;;;;5093353;28;20032;-14
2022/09/19 02:27:07;;;;;;;10.15;6.90;;;11.20;81.10;;;;;;5092783;28;20067;-17
2022/09/19 02:29:40;;;;;;;8.98;6.28;;;11.20;81.20;;;;;;5096443;28;20035;-16
2022/09/19 02:32:09;;;;;;;8.00;6.07;;;11.10;81.10;;;;;;5096874;28;20020;-18
2022/09/19 02:34:36;;;;;;;13.95;7.25;;;11.10;81.30;;;;;;5096422;28;20111;-17
2022/09/19 02:37:21;;;;;;;11.10;7.55;;;11.10;81.20;;;;;;5095208;28;20024;-16
2022/09/19 02:39:58;;;;;;;11.40;8.55;;;11.10;81.40;;;;;;5096424;28;20484;-16
2022/09/19 02:42:47;;;;;;;11.02;6.55;;;11.00;81.30;;;;;;5096421;28;20024;-17
2022/09/19 02:45:25;;;;;;;13.90;8.52;;;11.00;81.30;;;;;;5096587;28;20146;-16
2022/09/19 02:48:08;;;;;;;9.68;6.90;;;10.90;81.60;;;;;;5096219;28;20073;-15
2022/09/19 02:51:11;;;;;;;11.18;7.82;;;11.00;81.40;;;;;;5096085;28;20027;-16
2022/09/19 02:53:46;;;;;;;10.90;7.90;;;10.90;81.50;;;;;;5096600;28;20111;-16
2022/09/19 02:56:16;;;;;;;8.52;5.90;;;11.00;81.50;;;;;;5096050;28;20020;-16
2022/09/19 02:58:54;;;;;;;6.97;5.18;;;11.00;81.60;;;;;;5095874;28;20060;-16
2022/09/19 03:01:27;;;;;;;7.50;5.10;;;10.90;81.50;;;;;;5095962;28;20557;-16
2022/09/19 03:04:18;;;;;;;6.80;4.93;;;10.90;81.40;;;;;;5095828;28;20476;-18
2022/09/19 03:07:25;;;;;;;8.85;6.47;;;11.00;81.30;;;;;;5095594;28;20071;-16
2022/09/19 03:10:15;;;;;;;8.68;5.82;;;10.90;81.30;;;;;;5096351;28;20065;-16
2022/09/19 03:12:53;;;;;;;9.80;7.65;;;10.90;81.40;;;;;;5095607;28;20483;-18
2022/09/19 03:15:33;;;;;;;8.90;5.72;;;10.90;81.20;;;;;;5096221;28;20027;-18
2022/09/19 03:18:01;;;;;;;10.10;6.72;;;10.90;81.20;;;;;;5095972;28;20020;-16
2022/09/19 03:20:27;;;;;;;13.70;7.93;;;11.00;81.30;;;;;;5095554;28;20089;-16
2022/09/19 03:22:53;;;;;;;13.55;8.32;;;10.90;81.20;;;;;;5095232;28;20514;-17
2022/09/19 03:25:20;;;;;;;9.63;6.78;;;10.90;81.20;;;;;;5077402;28;20028;-17
2022/09/19 03:27:46;;;;;;;8.55;5.85;;;10.90;81.30;;;;;;5095398;28;20548;-16
2022/09/19 03:30:13;;;;;;;10.27;7.88;;;10.90;81.40;;;;;;5095659;28;20099;-16
2022/09/19 03:32:41;;;;;;;10.07;7.68;;;10.90;81.20;;;;;;5095632;28;20024;-18
2022/09/19 03:35:10;;;;;;;10.93;6.63;;;10.90;81.60;;;;;;5095401;28;20032;-16
2022/09/19 03:37:35;;;;;;;11.30;8.02;;;10.90;81.50;;;;;;5095577;28;20047;-16
2022/09/19 03:40:02;;;;;;;12.65;8.13;;;10.80;81.40;;;;;;5094565;28;20414;-15
2022/09/19 03:42:31;;;;;;;13.27;6.95;;;10.80;81.50;;;;;;5095153;28;20085;-16
2022/09/19 03:44:57;;;;;;;8.40;6.13;;;10.70;81.50;;;;;;5095307;28;20104;-16
2022/09/19 03:47:24;;;;;;;7.68;5.30;;;10.70;81.60;;;;;;5095628;28;20466;-17
2022/09/19 03:49:50;;;;;;;9.98;7.13;;;10.60;81.70;;;;;;5095496;28;20031;-16
2022/09/19 03:52:17;;;;;;;8.82;6.03;;;10.60;81.70;;;;;;5095220;28;20020;-16
2022/09/19 03:54:44;;;;;;;12.05;4.75;;;10.60;81.90;;;;;;5095171;28;20024;-15
2022/09/19 03:57:12;;;;;;;10.27;7.18;;;10.50;81.90;;;;;;5094812;28;20035;-16
2022/09/19 03:59:41;;;;;;;8.60;6.07;;;10.50;81.90;;;;;;5095032;28;20078;-16
2022/09/19 04:02:09;;;;;;;7.80;5.63;;;10.40;82.00;;;;;;5094602;28;20051;-16
2022/09/19 04:04:35;;;;;;;9.95;6.00;;;10.50;82.00;;;;;;5094914;28;20434;-18
2022/09/19 04:07:02;;;;;;;9.77;6.57;;;10.50;82.20;;;;;;5094260;28;20077;-16
2022/09/19 04:09:28;;;;;;;7.25;5.57;;;10.40;82.20;;;;;;5094621;28;20120;-16
2022/09/19 04:11:59;;;;;;;5.82;4.47;;;10.40;82.10;;;;;;5076503;28;20062;-17
2022/09/19 04:14:26;;;;;;;7.60;5.80;;;10.40;82.20;;;;;;5094527;28;20036;-15
2022/09/19 04:16:52;;;;;;;8.52;4.82;;;10.40;82.10;;;;;;5094376;28;20108;-15
2022/09/19 04:19:18;;;;;;;6.93;4.75;;;10.40;82.40;;;;;;5094763;28;20024;-16
2022/09/19 04:21:44;;;;;;;7.47;5.07;;;10.30;82.50;;;;;;5094331;28;20369;-15
2022/09/19 04:24:13;;;;;;;6.85;4.18;;;10.40;82.30;;;;;;5094453;28;20028;-15
2022/09/19 04:26:43;;;;;;;9.27;5.55;;;10.40;82.10;;;;;;5094596;28;20028;-16
2022/09/19 04:29:10;;;;;;;6.30;4.45;;;10.40;82.10;;;;;;5093965;28;20032;-16
2022/09/19 04:31:39;;;;;;;9.10;6.22;;;10.30;82.20;;;;;;5094265;28;20099;-15
2022/09/19 04:34:14;;;;;;;8.13;4.28;;;10.30;82.50;;;;;;5094583;28;20012;-17
2022/09/19 04:36:43;;;;;;;7.03;4.70;;;10.30;82.30;;;;;;5094436;28;20046;-16
2022/09/19 04:39:10;;;;;;;5.43;3.95;;;10.30;82.10;;;;;;5093820;28;20510;-17
2022/09/19 04:41:38;;;;;;;7.15;5.38;;;10.30;82.10;;;;;;5094031;28;20495;-18
2022/09/19 04:44:06;;;;;;;8.60;5.53;;;10.30;82.30;;;;;;5093960;28;20070;-18
2022/09/19 04:46:33;;;;;;;7.47;4.88;;;10.30;82.30;;;;;;5094229;28;20035;-17
2022/09/19 04:48:59;;;;;;;6.45;4.43;;;10.30;81.90;;;;;;5093647;28;20383;-16
2022/09/19 04:51:27;;;;;;;9.13;5.60;;;10.30;81.90;;;;;;5093752;28;20531;-17
2022/09/19 04:53:54;;;;;;;9.18;5.22;;;10.30;81.90;;;;;;5094018;28;20028;-18
2022/09/19 04:56:20;;;;;;;5.18;3.95;;;10.40;81.70;;;;;;5093998;28;20038;-17
2022/09/19 04:58:47;;;;;;;6.22;4.15;;;10.40;81.80;;;;;;5093938;28;20107;-18
2022/09/19 05:01:14;;;;;;;7.20;5.30;;;10.30;81.90;;;;;;5093655;28;20032;-16
2022/09/19 05:03:43;;;;;;;7.72;5.32;;;10.30;81.90;;;;;;5092360;28;20031;-17
2022/09/19 05:06:11;;;;;;;9.98;5.75;;;10.30;81.90;;;;;;5093890;28;20041;-17
2022/09/19 05:08:40;;;;;;;5.45;4.05;;;10.20;81.80;;;;;;5093433;28;20076;-17
2022/09/19 05:11:08;;;;;;;6.63;4.22;;;10.20;82.00;;;;;;5093374;28;20388;-15
2022/09/19 05:13:37;;;;;;;8.82;3.88;;;10.20;82.10;;;;;;5093697;28;20032;-16
2022/09/19 05:16:05;;;;;;;9.90;5.20;;;10.20;82.10;;;;;;5093429;28;20392;-17
2022/09/19 05:18:37;;;;;;;6.25;3.63;;;10.20;82.10;;;;;;5093427;28;20039;-16
2022/09/19 05:21:06;;;;;;;6.95;3.85;;;10.30;81.90;;;;;;5093533;28;20028;-19
2022/09/19 05:23:35;;;;;;;8.30;4.35;;;10.30;81.70;;;;;;5093287;28;20028;-16
2022/09/19 05:26:06;;;;;;;8.90;4.55;;;10.30;81.70;;;;;;5093675;28;20479;-18
2022/09/19 05:28:33;;;;;;;6.78;3.90;;;10.40;81.60;;;;;;5093523;28;20177;-17
2022/09/19 05:31:04;;;;;;;10.30;5.35;;;10.50;81.60;;;;;;5093096;28;20035;-17
2022/09/19 05:33:32;;;;;;;8.82;4.53;;;10.60;81.30;;;;;;5093598;28;20040;-17
2022/09/19 05:36:00;;;;;;;8.75;5.35;;;10.70;81.20;;;;;;5093524;28;20020;-18
2022/09/19 05:38:33;;;;;;;9.45;5.55;;;10.70;81.10;;;;;;5093179;28;20028;-17
2022/09/19 05:41:01;;;;;;;8.10;5.25;;;10.80;81.40;;;;;;5074881;28;20059;-16
2022/09/19 05:43:28;;;;;;;9.02;5.57;;;10.90;81.40;;;;;;5093263;28;20032;-17
2022/09/19 05:45:56;;;;;;;10.77;6.05;;;10.90;81.00;;;;;;5093510;28;20020;-17
2022/09/19 05:48:23;;;;;;;10.85;5.50;;;11.00;81.20;;;;;;5091799;28;20059;-16
2022/09/19 05:50:50;;;;;;;12.77;5.60;;;11.10;81.20;;;;;;5093043;28;20020;-16
2022/09/19 05:56:04;;;;;;;10.38;5.28;;;11.20;80.70;;;;;;5093398;28;20430;-17
2022/09/19 05:58:31;;;;;;;11.52;5.72;;;11.40;80.80;;;;;;5092942;28;20023;-16
2022/09/19 06:00:57;;;;;;;9.90;7.32;;;11.50;80.50;;;;;;5093033;28;20027;-16
2022/09/19 06:03:23;;;;;;;27.50;24.35;;;11.60;80.50;;;;;;5094555;28;20035;-16
2022/09/19 06:05:51;;;;;;;10.32;6.00;;;11.80;80.30;;;;;;5097324;28;20016;-16
2022/09/19 06:08:21;;;;;;;10.90;5.65;;;11.90;80.20;;;;;;5096710;28;20406;-18
2022/09/19 06:10:48;;;;;;;10.00;5.90;;;12.00;80.10;;;;;;5097037;28;20107;-16
2022/09/19 06:13:22;;;;;;;7.65;5.00;;;12.20;80.20;;;;;;5096747;28;20073;-17
2022/09/19 06:15:48;;;;;;;;;;;12.40;80.00;;;;;;5097494;28;20409;-16
2022/09/19 06:18:15;;;;;;;10.38;6.03;;;12.50;80.20;;;;;;5096752;28;20271;-17
2022/09/19 06:20:42;;;;;;;7.93;4.30;;;12.70;79.90;;;;;;5096789;28;20032;-17
2022/09/19 06:23:10;;;;;;;7.55;4.82;;;12.90;79.70;;;;;;5096563;28;20043;-16
2022/09/19 06:25:38;;;;;;;5.78;4.43;;;13.00;79.50;;;;;;5096847;28;20027;-16
2022/09/19 06:28:10;;;;;;;7.72;4.90;;;13.20;79.10;;;;;;5096512;28;20051;-16
2022/09/19 06:30:38;;;;;;;7.80;4.90;;;13.40;78.90;;;;;;5096620;28;20483;-17
2022/09/19 06:33:07;;;;;;;8.95;5.00;;;13.60;78.80;;;;;;5096629;28;20024;-17
2022/09/19 06:35:34;;;;;;;6.78;3.92;;;13.80;78.50;;;;;;5095239;28;20077;-14
2022/09/19 06:38:02;;;;;;;8.02;5.20;;;14.00;78.00;;;;;;5096701;28;20036;-17
2022/09/19 06:40:29;;;;;;;11.50;5.32;;;14.20;77.90;;;;;;5096802;28;20028;-15
2022/09/19 06:43:02;;;;;;;19.13;12.35;;;14.40;77.20;;;;;;5096284;28;20036;-16
2022/09/19 06:45:37;;;;;;;10.25;6.95;;;14.70;77.00;;;;;;5096870;28;20035;-16
2022/09/19 06:48:05;;;;;;;11.45;7.53;;;14.90;76.70;;;;;;5096213;28;20062;-17
2022/09/19 06:50:31;;;;;;;12.15;8.73;;;15.30;76.00;;;;;;5096149;28;20438;-16
2022/09/19 06:52:58;;;;;;;7.35;4.80;;;15.50;74.80;;;;;;5095973;28;20506;-16
2022/09/19 06:55:25;;;;;;;7.38;4.40;;;15.70;74.70;;;;;;5094774;28;20024;-16
2022/09/19 06:58:03;;;;;;;5.57;4.10;;;16.00;74.50;;;;;;5096236;28;20047;-16
2022/09/19 07:00:33;;;;;;;4.32;3.38;;;16.30;74.20;;;;;;5077824;28;20024;-16
2022/09/19 07:03:01;;;;;;;4.32;3.05;;;16.70;73.30;;;;;;5095674;28;20073;-16
2022/09/19 07:05:31;;;;;;;7.80;3.72;;;17.00;73.00;;;;;;5096143;28;20522;-17
2022/09/19 07:07:58;;;;;;;9.90;6.50;;;17.40;71.80;;;;;;5095746;28;20051;-16
2022/09/19 07:10:25;;;;;;;7.03;4.47;;;17.60;71.10;;;;;;5095937;28;20556;-17
2022/09/19 07:12:52;;;;;;;8.65;4.93;;;17.80;70.80;;;;;;5095729;28;20034;-17
2022/09/19 07:15:19;;;;;;;3.75;2.92;;;18.10;70.10;;;;;;5094673;28;20100;-18
2022/09/19 07:17:45;;;;;;;5.95;3.85;;;18.40;68.80;;;;;;5095964;28;20035;-16
2022/09/19 07:20:11;;;;;;;4.60;3.15;;;18.50;68.30;;;;;;5095623;28;20024;-16
2022/09/19 07:22:37;;;;;;;6.05;3.40;;;18.70;67.30;;;;;;5095814;28;20029;-16
2022/09/19 07:25:04;;;;;;;8.70;5.10;;;18.90;67.00;;;;;;5095552;28;20119;-16
2022/09/19 07:27:30;;;;;;;6.65;3.60;;;18.90;66.60;;;;;;5095634;28;20039;-15
2022/09/19 07:29:57;;;;;;;4.63;3.28;;;19.10;65.80;;;;;;5095349;28;20035;-17
2022/09/19 07:32:22;;;;;;;5.93;3.50;;;19.30;65.60;;;;;;5095612;28;20028;-15
2022/09/19 07:34:48;;;;;;;7.68;3.70;;;19.40;65.20;;;;;;5095132;28;20032;-16
2022/09/19 07:37:15;;;;;;;7.75;4.70;;;19.50;64.00;;;;;;5095776;28;20020;-16
2022/09/19 07:39:41;;;;;;;14.10;9.00;;;19.50;63.50;;;;;;5095210;28;20471;-16
2022/09/19 07:42:07;;;;;;;26.02;11.68;;;19.50;63.50;;;;;;5095159;28;20028;-18
2022/09/19 07:44:33;;;;;;;13.73;8.00;;;19.50;63.50;;;;;;5095333;28;20089;-16
2022/09/19 07:47:42;;;;;;;12.93;6.40;;;19.60;62.20;;;;;;5094990;28;20035;-18
2022/09/19 07:49:48;;;;;;;8.32;4.80;;;19.70;62.50;;;;;;5092028;28;20059;-16
2022/09/19 07:52:16;;;;;;;6.03;3.85;;;20.00;61.90;;;;;;5095080;28;20112;-17
2022/09/19 07:54:42;;;;;;;4.40;3.60;;;20.30;60.70;;;;;;5094893;28;20111;-16
2022/09/19 07:57:08;;;;;;;6.75;3.83;;;20.40;59.80;;;;;;5094786;28;20016;-15
2022/09/19 07:59:34;;;;;;;8.20;4.50;;;20.60;60.10;;;;;;5093576;28;20073;-18
2022/09/19 08:02:00;;;;;;;7.65;4.70;;;20.90;59.40;;;;;;5094790;28;20031;-15
2022/09/19 08:04:27;;;;;;;9.95;5.18;;;21.10;58.30;;;;;;5094638;28;20028;-15
2022/09/19 08:06:53;;;;;;;7.55;5.20;;;21.20;58.00;;;;;;5094473;28;20386;-17
2022/09/19 08:09:19;;;;;;;13.73;7.50;;;21.40;57.20;;;;;;5094965;28;20024;-16
2022/09/19 08:11:46;;;;;;;7.20;5.05;;;21.60;57.00;;;;;;5094843;28;20074;-17
2022/09/19 08:14:13;;;;;;;8.18;4.97;;;21.70;55.90;;;;;;5094803;28;20024;-16
2022/09/19 08:16:39;;;;;;;8.02;4.65;;;21.60;55.10;;;;;;5094484;28;20032;-16
2022/09/19 08:19:05;;;;;;;7.63;4.95;;;21.50;54.30;;;;;;5094536;28;20078;-17
2022/09/19 08:21:32;;;;;;;6.50;4.32;;;21.30;53.70;;;;;;5094383;28;20383;-17
2022/09/19 08:23:58;;;;;;;6.13;3.58;;;21.00;53.80;;;;;;5094619;28;20119;-17
2022/09/19 08:26:24;;;;;;;5.35;3.67;;;20.90;54.90;;;;;;5093943;28;20380;-16
2022/09/19 08:28:51;;;;;;;5.80;3.75;;;20.90;55.20;;;;;;5094480;28;20036;-17
2022/09/19 08:31:18;;;;;;;7.05;4.03;;;21.10;55.20;;;;;;5094215;28;20028;-15
2022/09/19 08:33:45;;;;;;;7.85;3.70;;;21.40;55.10;;;;;;5094147;28;20032;-15
2022/09/19 08:36:12;;;;;;;4.03;2.90;;;21.60;54.60;;;;;;5094109;28;20039;-14
2022/09/19 08:38:38;;;;;;;6.50;3.55;;;22.00;54.10;;;;;;5094164;28;20024;-16
2022/09/19 08:41:25;;;;;;;3.15;2.78;;;22.30;53.80;;;;;;5093891;28;20016;-16
2022/09/19 08:44:06;;;;;;;3.78;2.85;;;22.70;53.10;;;;;;5094360;28;20051;-16
2022/09/19 08:46:55;;;;;;;4.70;2.78;;;23.10;52.70;;;;;;5093912;28;20031;-15
2022/09/19 08:49:38;;;;;;;3.88;2.88;;;23.60;51.20;;;;;;5093644;28;20122;-16
2022/09/19 08:52:26;;;;;;;4.78;2.80;;;24.10;49.80;;;;;;5094217;28;20024;-14
2022/09/19 08:54:54;;;;;;;3.88;2.38;;;24.40;49.30;;;;;;5093588;28;20059;-15
2022/09/19 08:57:33;;;;;;;3.67;2.60;;;24.70;48.60;;;;;;5093913;28;20016;-15
2022/09/19 09:00:07;;;;;;;4.18;2.70;;;24.70;48.60;;;;;;5093781;28;20024;-15
2022/09/19 09:02:41;;;;;;;6.90;4.07;;;24.90;46.90;;;;;;5093636;28;20032;-15
2022/09/19 09:05:16;;;;;;;5.65;2.78;;;25.10;46.90;;;;;;5093573;28;20497;-14
2022/09/19 09:08:09;;;;;;;5.80;2.70;;;25.20;46.90;;;;;;5093903;28;20131;-14
2022/09/19 09:10:53;;;;;;;4.72;2.50;;;25.40;47.20;;;;;;5093621;28;20077;-15
2022/09/19 09:13:40;;;;;;;4.85;2.80;;;25.60;46.90;;;;;;5093506;28;20027;-14
2022/09/19 09:16:24;;;;;;;4.80;2.97;;;25.90;46.00;;;;;;5093532;28;20024;-14
2022/09/19 09:19:02;;;;;;;3.90;2.70;;;26.10;43.60;;;;;;5093572;28;20024;-16
2022/09/19 09:21:43;;;;;;;3.28;2.65;;;26.20;44.20;;;;;;5093938;28;20029;-15
2022/09/19 09:24:16;;;;;;;4.72;3.05;;;26.40;42.70;;;;;;5093744;28;20043;-16
2022/09/19 09:26:45;;;;;;;3.90;2.70;;;26.50;43.60;;;;;;5093527;28;20078;-15
2022/09/19 09:29:12;;;;;;;5.47;3.42;;;26.70;43.60;;;;;;5093421;28;20023;-16
2022/09/19 09:31:50;;;;;;;5.93;3.40;;;26.90;43.50;;;;;;5197213;22;20494;-15
2022/09/19 09:34:30;;;;;;;2.65;2.20;;;26.80;42.90;;;;;;5113690;28;20031;-15
2022/09/19 09:37:18;;;;;;;4.25;2.92;;;26.70;43.60;;;;;;5113087;28;20019;-14
2022/09/19 09:39:59;;;;;;;5.70;3.00;;;26.60;42.00;;;;;;5113947;28;20032;-16
2022/09/19 09:42:43;;;;;;;4.45;2.70;;;26.40;43.30;;;;;;5113516;28;20015;-16
2022/09/19 09:45:33;;;;;;;5.10;2.78;;;26.40;43.50;;;;;;5113278;28;20567;-16
2022/09/19 09:48:21;;;;;;;4.40;2.38;;;26.70;42.90;;;;;;5113550;28;20023;-15
2022/09/19 09:51:06;;;;;;;3.80;2.70;;;27.10;42.60;;;;;;5113592;28;20024;-20
2022/09/19 09:53:49;;;;;;;4.55;3.00;;;27.40;41.80;;;;;;5113990;28;20020;-15
2022/09/19 09:56:45;;;;;;;3.63;2.88;;;27.80;40.30;;;;;;5113619;28;20023;-16
2022/09/19 10:05:25;;;;;;;4.15;2.78;;;28.50;37.40;;;;;;5113620;28;20038;-15
2022/09/19 10:08:14;;;;;;;2.53;2.25;;;28.70;37.40;;;;;;5113351;28;20020;-15
2022/09/19 10:10:42;;;;;;;3.80;2.40;;;28.90;37.70;;;;;;5113657;28;20051;-16
2022/09/19 10:13:27;;;;;;;4.40;3.17;;;29.00;38.30;;;;;;5113206;28;20030;-15
2022/09/19 10:16:02;;;;;;;4.55;2.80;;;29.40;39.00;;;;;;5113461;28;20111;-15
2022/09/19 10:18:46;;;;;;;4.10;2.70;;;29.60;38.70;;;;;;5113256;28;20467;-16
2022/09/19 10:21:13;;;;;;;3.95;2.53;;;29.90;37.60;;;;;;5113089;28;20043;-16
2022/09/19 10:23:44;;;;;;;4.18;2.67;;;29.90;37.40;;;;;;5113381;28;20028;-16
2022/09/19 10:26:15;;;;;;;2.40;2.15;;;29.60;37.00;;;;;;5113579;28;20016;-16
2022/09/19 10:28:51;;;;;;;4.55;2.60;;;29.10;38.10;;;;;;5113167;28;20024;-15
2022/09/19 10:31:34;;;;;;;3.70;2.45;;;29.10;37.80;;;;;;5112805;28;20056;-15
2022/09/19 10:34:14;;;;;;;3.08;2.00;;;29.40;37.70;;;;;;5113452;28;20047;-15
2022/09/19 10:36:46;;;;;;;3.30;2.08;;;29.80;37.20;;;;;;5113256;28;20043;-15
2022/09/19 10:39:17;;;;;;;;;;;30.30;37.00;;;;;;5113429;28;20379;-15
2022/09/19 10:41:44;;;;;;;2.70;1.88;;;30.70;35.60;;;;;;5112988;28;19907;-15
2022/09/19 10:44:26;;;;;;;3.25;1.95;;;31.10;35.90;;;;;;5113182;28;20031;-15
2022/09/19 10:47:02;;;;;;;3.38;1.80;;;31.40;34.90;;;;;;5112706;28;20062;-15
2022/09/19 10:49:44;;;;;;;2.30;1.55;;;31.70;34.60;;;;;;5114845;28;20027;-15
2022/09/19 10:52:20;;;;;;;1.88;1.45;;;32.10;34.80;;;;;;5116674;28;20494;-15
2022/09/19 10:54:49;;;;;;;2.53;1.50;;;32.50;34.30;;;;;;5116853;28;20016;-14
2022/09/19 10:57:45;;;;;;;3.00;1.75;;;32.80;33.40;;;;;;5116725;28;20031;-14
2022/09/19 11:00:25;;;;;;;1.85;1.42;;;32.60;31.80;;;;;;5116376;28;20030;-14
2022/09/19 11:03:17;;;;;;;1.60;1.40;;;32.30;33.00;;;;;;5116304;28;20555;-15
2022/09/19 11:05:43;;;;;;;1.90;1.70;;;32.40;33.00;;;;;;5116384;28;20490;-15
2022/09/19 11:08:24;;;;;;;5.05;1.50;;;32.50;32.90;;;;;;5116595;28;20398;-15
2022/09/19 11:10:50;;;;;;;3.25;1.80;;;32.40;30.50;;;;;;5097951;28;20019;-17
2022/09/19 11:13:22;;;;;;;2.70;1.40;;;32.00;31.50;;;;;;5116167;28;20386;-15
2022/09/19 11:15:58;;;;;;;3.13;1.43;;;32.00;31.60;;;;;;5116102;28;20023;-15
2022/09/19 11:18:50;;;;;;;1.00;0.90;;;32.30;29.90;;;;;;5116352;28;20047;-17
2022/09/19 11:21:30;;;;;;;2.73;1.17;;;32.80;29.80;;;;;;5116588;28;20027;-15
2022/09/19 11:24:06;;;;;;;2.50;1.30;;;33.30;29.80;;;;;;5116355;28;20036;-15
2022/09/19 11:26:44;;;;;;;2.33;1.30;;;33.70;29.20;;;;;;5116141;28;20483;-16
2022/09/19 11:29:34;;;;;;;1.63;1.10;;;33.80;28.70;;;;;;5115785;28;20474;-16
2022/09/19 11:32:37;;;;;;;0.98;0.70;;;33.60;29.00;;;;;;5115707;28;20047;-15
2022/09/19 11:35:07;;;;;;;;;;;33.60;27.50;;;;;;5097739;28;20077;-16
2022/09/19 11:37:54;;;;;;;1.73;1.20;;;33.70;24.60;;;;;;5116021;28;19986;-15
2022/09/19 11:40:56;;;;;;;3.28;1.55;;;34.10;26.80;;;;;;5116022;28;20028;-16
2022/09/19 11:43:34;;;;;;;4.65;1.70;;;34.60;27.50;;;;;;5115782;28;20032;-15
2022/09/19 11:46:42;;;;;;;2.85;1.70;;;34.90;28.30;;;;;;5115778;28;20024;-15
2022/09/19 11:49:26;;;;;;;2.38;1.77;;;35.20;27.80;;;;;;5104651;28;20078;-15
2022/09/19 11:52:06;;;;;;;3.38;1.60;;;35.30;27.10;;;;;;5115501;28;20024;-15
2022/09/19 11:54:44;;;;;;;1.70;1.35;;;35.20;27.30;;;;;;5115690;28;20028;-15
2022/09/19 11:57:34;;;;;;;1.58;1.40;;;35.20;28.00;;;;;;5115242;28;20028;-15
2022/09/19 12:00:21;;;;;;;1.80;1.40;;;35.30;27.30;;;;;;5115394;28;20081;-15
2022/09/19 12:02:58;;;;;;;4.28;1.25;;;35.40;28.20;;;;;;5115039;28;20034;-15
2022/09/19 12:05:46;;;;;;;1.73;1.13;;;35.40;26.50;;;;;;5115477;28;20055;-15
2022/09/19 12:08:57;;;;;;;1.48;1.05;;;35.50;26.00;;;;;;5115110;28;20032;-15
2022/09/19 12:11:41;;;;;;;1.17;1.00;;;35.40;26.80;;;;;;5032341;28;20397;-15
2022/09/19 12:14:26;;;;;;;1.55;1.10;;;35.40;25.80;;;;;;5032525;28;20037;-15
2022/09/19 12:17:10;;;;;;;1.40;0.98;;;35.50;26.80;;;;;;5032114;28;20036;-15
2022/09/19 12:19:41;;;;;;;1.13;0.90;;;35.70;26.10;;;;;;5032385;28;20029;-16
2022/09/19 12:22:21;;;;;;;1.10;0.90;;;35.90;25.70;;;;;;5032234;28;20130;-15
2022/09/19 12:25:01;;;;;;;1.75;1.10;;;36.20;25.70;;;;;;5032270;28;20507;-15
2022/09/19 12:28:06;;;;;;;1.10;1.00;;;36.40;25.10;;;;;;5032716;28;20048;-16
2022/09/19 12:30:40;;;;;;;1.02;0.93;;;36.50;22.50;;;;;;4992294;28;20050;-15
2022/09/19 12:33:48;;;;;;;1.38;0.70;;;36.40;20.80;;;;;;4992703;28;20061;-15
2022/09/19 12:36:30;;;;;;;1.20;0.70;;;36.50;19.90;;;;;;4953850;29;20031;-16
2022/09/19 12:39:11;;;;;;;0.82;0.73;;;36.50;20.90;;;;;;4953839;29;20054;-15
2022/09/19 12:41:52;;;;;;;0.93;0.82;;;36.70;21.70;;;;;;4954032;29;20041;-15
2022/09/19 12:44:26;;;;;;;1.73;1.10;;;37.00;22.50;;;;;;4953843;29;20047;-15
2022/09/19 12:47:22;;;;;;;1.17;1.08;;;36.90;22.50;;;;;;4953550;29;20043;-16
2022/09/19 12:50:15;;;;;;;1.58;0.90;;;36.40;23.40;;;;;;4915741;29;20036;-15
2022/09/19 12:53:00;;;;;;;1.08;0.80;;;36.30;23.80;;;;;;4915561;29;20118;-15
2022/09/19 12:55:56;;;;;;;1.38;0.90;;;36.10;23.20;;;;;;4915738;29;20047;-15
2022/09/19 12:58:26;;;;;;;1.52;0.90;;;36.20;22.40;;;;;;4915394;29;20505;-16
2022/09/19 13:01:13;;;;;;;1.13;1.02;;;36.30;22.70;;;;;;4915275;29;20039;-15
2022/09/19 13:03:44;;;;;;;0.98;0.90;;;36.40;22.50;;;;;;4915324;29;20420;-15
2022/09/19 13:06:24;;;;;;;1.52;0.90;;;36.40;22.90;;;;;;4945641;28;20038;-15
2022/09/19 13:09:05;;;;;;;1.05;1.02;;;36.40;22.70;;;;;;4972521;28;20023;-17
2022/09/19 13:11:39;;;;;;;1.17;1.08;;;36.30;22.90;;;;;;4975516;28;20035;-16
2022/09/19 13:14:20;;;;;;;2.28;1.00;;;36.10;22.80;;;;;;5031713;28;20124;-15
2022/09/19 13:25:27;;;;;;;0.98;0.75;;;36.30;22.30;;;;;;5011221;28;20041;-15
2022/09/19 13:28:21;;;;;;;2.90;1.00;;;36.40;22.60;;;;;;5113742;28;20020;-15
2022/09/19 13:30:59;;;;;;;1.92;0.85;;;36.80;22.30;;;;;;5113539;28;20048;-16
2022/09/19 13:33:34;;;;;;;2.78;1.13;;;37.20;21.20;;;;;;5114028;28;20031;-15
2022/09/19 13:36:13;;;;;;;1.77;1.20;;;37.50;21.50;;;;;;5113758;28;20028;-15
2022/09/19 13:38:46;;;;;;;1.73;1.30;;;37.60;21.70;;;;;;5113644;28;20065;-15
2022/09/19 13:41:35;;;;;;;3.13;1.27;;;37.50;21.80;;;;;;5114174;28;20078;-15
2022/09/19 13:44:36;;;;;;;4.57;1.25;;;37.40;22.10;;;;;;5113887;28;20027;-15